sensor_id;sensor_type;location;lat;lon;timestamp;P1;durP1;ratioP1;P2;durP2;ratioP2
76636;SDS011;65532;52.124;5.480;2024-02-21T00:01:17;12.60;;;2.60;;
76636;SDS011;65532;52.124;5.480;2024-02-21T00:03:46;10.05;;;2.30;;
76636;SDS011;65532;52.124;5.480;2024-02-21T00:06:13;6.60;;;2.05;;
76636;SDS011;65532;52.124;5.480;2024-02-21T00:08:39;6.15;;;1.73;;
76636;SDS011;65532;52.124;5.480;2024-02-21T00:11:06;5.43;;;1.83;;
76636;SDS011;65532;52.124;5.480;2024-02-21T00:13:33;13.50;;;2.05;;
76636;SDS011;65532;52.124;5.480;2024-02-21T00:16:00;12.45;;;2.13;;
76636;SDS011;65532;52.124;5.480;2024-02-21T00:18:27;7.18;;;1.88;;
76636;SDS011;65532;52.124;5.480;2024-02-21T00:20:56;7.15;;;1.70;;
76636;SDS011;65532;52.124;5.480;2024-02-21T00:23:22;6.30;;;2.25;;
76636;SDS011;65532;52.124;5.480;2024-02-21T00:25:49;3.42;;;1.77;;
76636;SDS011;65532;52.124;5.480;2024-02-21T00:28:16;5.70;;;2.33;;
76636;SDS011;65532;52.124;5.480;2024-02-21T00:30:43;4.97;;;2.10;;
76636;SDS011;65532;52.124;5.480;2024-02-21T00:33:10;8.27;;;1.50;;
76636;SDS011;65532;52.124;5.480;2024-02-21T00:35:36;5.78;;;2.10;;
76636;SDS011;65532;52.124;5.480;2024-02-21T00:38:03;8.23;;;1.52;;
76636;SDS011;65532;52.124;5.480;2024-02-21T00:40:30;6.57;;;1.60;;
76636;SDS011;65532;52.124;5.480;2024-02-21T00:42:57;5.60;;;1.83;;
76636;SDS011;65532;52.124;5.480;2024-02-21T00:45:23;3.70;;;1.52;;
76636;SDS011;65532;52.124;5.480;2024-02-21T00:47:50;6.78;;;1.40;;
76636;SDS011;65532;52.124;5.480;2024-02-21T00:50:16;9.75;;;2.03;;
76636;SDS011;65532;52.124;5.480;2024-02-21T00:52:43;7.93;;;1.67;;
76636;SDS011;65532;52.124;5.480;2024-02-21T00:55:10;4.80;;;1.98;;
76636;SDS011;65532;52.124;5.480;2024-02-21T00:57:37;6.28;;;2.00;;
76636;SDS011;65532;52.124;5.480;2024-02-21T01:00:04;5.15;;;1.30;;
76636;SDS011;65532;52.124;5.480;2024-02-21T01:02:31;7.22;;;1.23;;
76636;SDS011;65532;52.124;5.480;2024-02-21T01:04:58;3.63;;;1.98;;
76636;SDS011;65532;52.124;5.480;2024-02-21T01:07:25;8.88;;;1.88;;
76636;SDS011;65532;52.124;5.480;2024-02-21T01:09:51;6.72;;;1.42;;
76636;SDS011;65532;52.124;5.480;2024-02-21T01:12:19;8.18;;;1.80;;
76636;SDS011;65532;52.124;5.480;2024-02-21T01:14:45;5.07;;;1.30;;
76636;SDS011;65532;52.124;5.480;2024-02-21T01:17:12;6.10;;;1.58;;
76636;SDS011;65532;52.124;5.480;2024-02-21T01:19:39;5.70;;;1.58;;
76636;SDS011;65532;52.124;5.480;2024-02-21T01:22:05;11.65;;;2.05;;
76636;SDS011;65532;52.124;5.480;2024-02-21T01:24:32;5.38;;;1.75;;
76636;SDS011;65532;52.124;5.480;2024-02-21T01:26:59;7.05;;;1.92;;
76636;SDS011;65532;52.124;5.480;2024-02-21T01:29:25;8.40;;;1.90;;
76636;SDS011;65532;52.124;5.480;2024-02-21T01:31:52;9.95;;;2.47;;
76636;SDS011;65532;52.124;5.480;2024-02-21T01:34:18;7.78;;;1.33;;
76636;SDS011;65532;52.124;5.480;2024-02-21T01:36:45;7.45;;;1.95;;
76636;SDS011;65532;52.124;5.480;2024-02-21T01:39:11;4.32;;;1.48;;
76636;SDS011;65532;52.124;5.480;2024-02-21T01:41:38;9.98;;;2.67;;
76636;SDS011;65532;52.124;5.480;2024-02-21T01:44:04;6.90;;;1.52;;
76636;SDS011;65532;52.124;5.480;2024-02-21T01:46:31;8.43;;;2.70;;
76636;SDS011;65532;52.124;5.480;2024-02-21T01:48:58;4.93;;;1.52;;
76636;SDS011;65532;52.124;5.480;2024-02-21T01:51:25;6.35;;;2.15;;
76636;SDS011;65532;52.124;5.480;2024-02-21T01:53:53;10.95;;;2.05;;
76636;SDS011;65532;52.124;5.480;2024-02-21T01:56:21;8.20;;;2.60;;
76636;SDS011;65532;52.124;5.480;2024-02-21T01:58:48;8.93;;;1.88;;
76636;SDS011;65532;52.124;5.480;2024-02-21T02:01:16;5.65;;;2.30;;
76636;SDS011;65532;52.124;5.480;2024-02-21T02:03:47;7.00;;;2.17;;
76636;SDS011;65532;52.124;5.480;2024-02-21T02:06:15;5.43;;;1.98;;
76636;SDS011;65532;52.124;5.480;2024-02-21T02:08:42;7.25;;;1.90;;
76636;SDS011;65532;52.124;5.480;2024-02-21T02:11:09;15.15;;;2.50;;
76636;SDS011;65532;52.124;5.480;2024-02-21T02:13:36;7.03;;;2.10;;
76636;SDS011;65532;52.124;5.480;2024-02-21T02:16:03;4.15;;;1.63;;
76636;SDS011;65532;52.124;5.480;2024-02-21T02:18:30;12.35;;;3.03;;
76636;SDS011;65532;52.124;5.480;2024-02-21T02:20:56;7.50;;;1.52;;
76636;SDS011;65532;52.124;5.480;2024-02-21T02:23:24;6.38;;;1.73;;
76636;SDS011;65532;52.124;5.480;2024-02-21T02:26:00;6.05;;;2.67;;
76636;SDS011;65532;52.124;5.480;2024-02-21T02:28:29;8.18;;;1.52;;
76636;SDS011;65532;52.124;5.480;2024-02-21T02:30:56;9.18;;;2.55;;
76636;SDS011;65532;52.124;5.480;2024-02-21T02:33:23;7.82;;;1.42;;
76636;SDS011;65532;52.124;5.480;2024-02-21T02:35:50;7.35;;;2.88;;
76636;SDS011;65532;52.124;5.480;2024-02-21T02:38:16;7.53;;;2.60;;
76636;SDS011;65532;52.124;5.480;2024-02-21T02:40:43;9.95;;;2.28;;
76636;SDS011;65532;52.124;5.480;2024-02-21T02:43:10;10.57;;;2.25;;
76636;SDS011;65532;52.124;5.480;2024-02-21T02:45:36;9.60;;;1.63;;
76636;SDS011;65532;52.124;5.480;2024-02-21T02:48:03;9.18;;;2.75;;
76636;SDS011;65532;52.124;5.480;2024-02-21T02:50:30;8.63;;;3.00;;
76636;SDS011;65532;52.124;5.480;2024-02-21T02:52:57;10.15;;;1.90;;
76636;SDS011;65532;52.124;5.480;2024-02-21T02:55:24;8.25;;;2.15;;
76636;SDS011;65532;52.124;5.480;2024-02-21T02:57:52;7.38;;;2.35;;
76636;SDS011;65532;52.124;5.480;2024-02-21T03:00:19;5.43;;;2.20;;
76636;SDS011;65532;52.124;5.480;2024-02-21T03:02:46;7.07;;;1.90;;
76636;SDS011;65532;52.124;5.480;2024-02-21T03:05:16;12.30;;;1.95;;
76636;SDS011;65532;52.124;5.480;2024-02-21T03:07:44;5.15;;;1.30;;
76636;SDS011;65532;52.124;5.480;2024-02-21T03:10:12;10.20;;;2.70;;
76636;SDS011;65532;52.124;5.480;2024-02-21T03:12:40;12.45;;;1.83;;
76636;SDS011;65532;52.124;5.480;2024-02-21T03:15:07;5.68;;;1.77;;
76636;SDS011;65532;52.124;5.480;2024-02-21T03:17:34;8.30;;;2.10;;
76636;SDS011;65532;52.124;5.480;2024-02-21T03:20:01;7.70;;;1.80;;
76636;SDS011;65532;52.124;5.480;2024-02-21T03:22:36;5.40;;;1.85;;
76636;SDS011;65532;52.124;5.480;2024-02-21T03:25:03;5.88;;;2.55;;
76636;SDS011;65532;52.124;5.480;2024-02-21T03:27:30;10.50;;;2.92;;
76636;SDS011;65532;52.124;5.480;2024-02-21T03:29:56;5.82;;;1.70;;
76636;SDS011;65532;52.124;5.480;2024-02-21T03:32:23;7.38;;;1.92;;
76636;SDS011;65532;52.124;5.480;2024-02-21T03:34:49;7.50;;;1.80;;
76636;SDS011;65532;52.124;5.480;2024-02-21T03:37:16;5.82;;;1.63;;
76636;SDS011;65532;52.124;5.480;2024-02-21T03:39:43;6.28;;;2.75;;
76636;SDS011;65532;52.124;5.480;2024-02-21T03:42:09;10.02;;;2.25;;
76636;SDS011;65532;52.124;5.480;2024-02-21T03:44:36;8.93;;;2.50;;
76636;SDS011;65532;52.124;5.480;2024-02-21T03:47:02;8.27;;;2.45;;
76636;SDS011;65532;52.124;5.480;2024-02-21T03:49:29;9.40;;;1.90;;
76636;SDS011;65532;52.124;5.480;2024-02-21T03:51:56;12.38;;;2.92;;
76636;SDS011;65532;52.124;5.480;2024-02-21T03:54:22;4.32;;;1.85;;
76636;SDS011;65532;52.124;5.480;2024-02-21T03:56:49;8.63;;;3.15;;
76636;SDS011;65532;52.124;5.480;2024-02-21T03:59:16;5.53;;;2.08;;
76636;SDS011;65532;52.124;5.480;2024-02-21T04:01:42;4.18;;;1.35;;
76636;SDS011;65532;52.124;5.480;2024-02-21T04:04:09;8.80;;;2.25;;
76636;SDS011;65532;52.124;5.480;2024-02-21T04:06:37;6.10;;;2.05;;
76636;SDS011;65532;52.124;5.480;2024-02-21T04:09:11;5.55;;;2.05;;
76636;SDS011;65532;52.124;5.480;2024-02-21T04:11:38;7.82;;;2.03;;
76636;SDS011;65532;52.124;5.480;2024-02-21T04:14:04;4.90;;;2.55;;
76636;SDS011;65532;52.124;5.480;2024-02-21T04:16:31;6.60;;;2.08;;
76636;SDS011;65532;52.124;5.480;2024-02-21T04:18:57;8.20;;;1.98;;
76636;SDS011;65532;52.124;5.480;2024-02-21T04:21:24;7.88;;;2.10;;
76636;SDS011;65532;52.124;5.480;2024-02-21T04:23:51;7.93;;;2.80;;
76636;SDS011;65532;52.124;5.480;2024-02-21T04:26:17;6.22;;;2.35;;
76636;SDS011;65532;52.124;5.480;2024-02-21T04:28:47;7.32;;;1.90;;
76636;SDS011;65532;52.124;5.480;2024-02-21T04:31:13;9.85;;;2.47;;
76636;SDS011;65532;52.124;5.480;2024-02-21T04:33:41;6.68;;;1.90;;
76636;SDS011;65532;52.124;5.480;2024-02-21T04:36:08;8.77;;;2.50;;
76636;SDS011;65532;52.124;5.480;2024-02-21T04:38:34;5.47;;;2.53;;
76636;SDS011;65532;52.124;5.480;2024-02-21T04:41:01;4.07;;;2.25;;
76636;SDS011;65532;52.124;5.480;2024-02-21T04:43:27;6.57;;;2.25;;
76636;SDS011;65532;52.124;5.480;2024-02-21T04:45:54;5.43;;;2.05;;
76636;SDS011;65532;52.124;5.480;2024-02-21T04:48:20;5.72;;;1.85;;
76636;SDS011;65532;52.124;5.480;2024-02-21T04:50:47;7.85;;;2.47;;
76636;SDS011;65532;52.124;5.480;2024-02-21T04:53:14;3.35;;;1.58;;
76636;SDS011;65532;52.124;5.480;2024-02-21T04:55:40;9.45;;;2.58;;
76636;SDS011;65532;52.124;5.480;2024-02-21T04:58:07;4.07;;;1.83;;
76636;SDS011;65532;52.124;5.480;2024-02-21T05:00:34;6.65;;;2.35;;
76636;SDS011;65532;52.124;5.480;2024-02-21T05:03:00;5.35;;;1.85;;
76636;SDS011;65532;52.124;5.480;2024-02-21T05:05:27;6.97;;;2.45;;
76636;SDS011;65532;52.124;5.480;2024-02-21T05:07:53;8.35;;;2.90;;
76636;SDS011;65532;52.124;5.480;2024-02-21T05:10:20;7.18;;;3.20;;
76636;SDS011;65532;52.124;5.480;2024-02-21T05:12:47;8.50;;;3.15;;
76636;SDS011;65532;52.124;5.480;2024-02-21T05:15:14;9.02;;;3.17;;
76636;SDS011;65532;52.124;5.480;2024-02-21T05:17:40;8.00;;;1.95;;
76636;SDS011;65532;52.124;5.480;2024-02-21T05:20:07;6.47;;;2.35;;
76636;SDS011;65532;52.124;5.480;2024-02-21T05:22:34;5.47;;;2.50;;
76636;SDS011;65532;52.124;5.480;2024-02-21T05:25:01;4.43;;;1.65;;
76636;SDS011;65532;52.124;5.480;2024-02-21T05:27:27;6.80;;;2.10;;
76636;SDS011;65532;52.124;5.480;2024-02-21T05:29:54;8.52;;;2.45;;
76636;SDS011;65532;52.124;5.480;2024-02-21T05:32:20;7.03;;;2.45;;
76636;SDS011;65532;52.124;5.480;2024-02-21T05:34:50;9.63;;;3.03;;
76636;SDS011;65532;52.124;5.480;2024-02-21T05:37:17;6.97;;;2.67;;
76636;SDS011;65532;52.124;5.480;2024-02-21T05:39:43;7.97;;;3.13;;
76636;SDS011;65532;52.124;5.480;2024-02-21T05:42:10;9.35;;;1.98;;
76636;SDS011;65532;52.124;5.480;2024-02-21T05:44:36;5.95;;;2.45;;
76636;SDS011;65532;52.124;5.480;2024-02-21T05:47:03;9.95;;;2.35;;
76636;SDS011;65532;52.124;5.480;2024-02-21T05:49:30;4.43;;;2.08;;
76636;SDS011;65532;52.124;5.480;2024-02-21T05:51:56;6.60;;;2.33;;
76636;SDS011;65532;52.124;5.480;2024-02-21T05:54:23;10.05;;;2.20;;
76636;SDS011;65532;52.124;5.480;2024-02-21T05:56:50;7.25;;;1.88;;
76636;SDS011;65532;52.124;5.480;2024-02-21T05:59:16;6.90;;;2.72;;
76636;SDS011;65532;52.124;5.480;2024-02-21T06:01:43;4.50;;;2.20;;
76636;SDS011;65532;52.124;5.480;2024-02-21T06:04:09;7.65;;;2.30;;
76636;SDS011;65532;52.124;5.480;2024-02-21T06:06:36;7.75;;;3.13;;
76636;SDS011;65532;52.124;5.480;2024-02-21T06:09:02;7.55;;;2.60;;
76636;SDS011;65532;52.124;5.480;2024-02-21T06:11:29;8.20;;;3.70;;
76636;SDS011;65532;52.124;5.480;2024-02-21T06:13:56;8.13;;;3.22;;
76636;SDS011;65532;52.124;5.480;2024-02-21T06:16:23;7.47;;;3.30;;
76636;SDS011;65532;52.124;5.480;2024-02-21T06:18:49;9.10;;;2.55;;
76636;SDS011;65532;52.124;5.480;2024-02-21T06:21:16;7.50;;;3.30;;
76636;SDS011;65532;52.124;5.480;2024-02-21T06:23:43;10.23;;;3.97;;
76636;SDS011;65532;52.124;5.480;2024-02-21T06:26:09;9.85;;;3.20;;
76636;SDS011;65532;52.124;5.480;2024-02-21T06:28:36;20.40;;;3.97;;
76636;SDS011;65532;52.124;5.480;2024-02-21T06:31:02;7.47;;;3.60;;
76636;SDS011;65532;52.124;5.480;2024-02-21T06:33:29;8.75;;;3.78;;
76636;SDS011;65532;52.124;5.480;2024-02-21T06:35:56;9.90;;;4.55;;
76636;SDS011;65532;52.124;5.480;2024-02-21T06:38:23;12.18;;;4.97;;
76636;SDS011;65532;52.124;5.480;2024-02-21T06:40:50;15.82;;;4.85;;
76636;SDS011;65532;52.124;5.480;2024-02-21T06:43:18;12.50;;;5.60;;
76636;SDS011;65532;52.124;5.480;2024-02-21T06:45:47;17.50;;;5.38;;
76636;SDS011;65532;52.124;5.480;2024-02-21T06:48:17;14.95;;;5.45;;
76636;SDS011;65532;52.124;5.480;2024-02-21T06:50:44;9.43;;;3.80;;
76636;SDS011;65532;52.124;5.480;2024-02-21T06:53:11;11.43;;;4.85;;
76636;SDS011;65532;52.124;5.480;2024-02-21T06:55:38;13.00;;;5.38;;
76636;SDS011;65532;52.124;5.480;2024-02-21T06:58:05;11.32;;;4.68;;
76636;SDS011;65532;52.124;5.480;2024-02-21T07:00:31;11.18;;;5.05;;
76636;SDS011;65532;52.124;5.480;2024-02-21T07:02:58;15.48;;;5.60;;
76636;SDS011;65532;52.124;5.480;2024-02-21T07:05:24;15.15;;;5.13;;
76636;SDS011;65532;52.124;5.480;2024-02-21T07:07:51;17.50;;;5.85;;
76636;SDS011;65532;52.124;5.480;2024-02-21T07:10:18;17.33;;;6.28;;
76636;SDS011;65532;52.124;5.480;2024-02-21T07:12:44;12.43;;;5.25;;
76636;SDS011;65532;52.124;5.480;2024-02-21T07:15:11;14.75;;;4.85;;
76636;SDS011;65532;52.124;5.480;2024-02-21T07:17:37;16.00;;;5.05;;
76636;SDS011;65532;52.124;5.480;2024-02-21T07:20:04;11.60;;;4.45;;
76636;SDS011;65532;52.124;5.480;2024-02-21T07:22:31;14.23;;;4.82;;
76636;SDS011;65532;52.124;5.480;2024-02-21T07:24:58;9.48;;;3.72;;
76636;SDS011;65532;52.124;5.480;2024-02-21T07:27:26;13.02;;;3.78;;
76636;SDS011;65532;52.124;5.480;2024-02-21T07:29:57;8.73;;;4.45;;
76636;SDS011;65532;52.124;5.480;2024-02-21T07:32:23;14.35;;;4.55;;
76636;SDS011;65532;52.124;5.480;2024-02-21T07:34:50;12.95;;;4.90;;
76636;SDS011;65532;52.124;5.480;2024-02-21T07:37:16;9.20;;;3.95;;
76636;SDS011;65532;52.124;5.480;2024-02-21T07:39:43;11.23;;;4.05;;
76636;SDS011;65532;52.124;5.480;2024-02-21T07:42:09;15.90;;;4.30;;
76636;SDS011;65532;52.124;5.480;2024-02-21T07:44:36;12.35;;;3.88;;
76636;SDS011;65532;52.124;5.480;2024-02-21T07:47:02;12.73;;;4.65;;
76636;SDS011;65532;52.124;5.480;2024-02-21T07:49:29;13.02;;;4.55;;
76636;SDS011;65532;52.124;5.480;2024-02-21T07:51:56;7.85;;;2.25;;
76636;SDS011;65532;52.124;5.480;2024-02-21T07:54:23;9.13;;;4.10;;
76636;SDS011;65532;52.124;5.480;2024-02-21T07:56:49;8.93;;;4.20;;
76636;SDS011;65532;52.124;5.480;2024-02-21T07:59:15;9.00;;;3.42;;
76636;SDS011;65532;52.124;5.480;2024-02-21T08:01:42;9.57;;;3.17;;
76636;SDS011;65532;52.124;5.480;2024-02-21T08:04:11;11.77;;;3.17;;
76636;SDS011;65532;52.124;5.480;2024-02-21T08:06:37;8.52;;;4.30;;
76636;SDS011;65532;52.124;5.480;2024-02-21T08:09:04;7.70;;;2.75;;
76636;SDS011;65532;52.124;5.480;2024-02-21T08:11:30;8.98;;;3.22;;
76636;SDS011;65532;52.124;5.480;2024-02-21T08:13:57;9.15;;;3.83;;
76636;SDS011;65532;52.124;5.480;2024-02-21T08:16:24;10.82;;;2.95;;
76636;SDS011;65532;52.124;5.480;2024-02-21T08:18:52;6.50;;;2.78;;
76636;SDS011;65532;52.124;5.480;2024-02-21T08:21:18;9.63;;;3.03;;
76636;SDS011;65532;52.124;5.480;2024-02-21T08:23:45;11.48;;;3.83;;
76636;SDS011;65532;52.124;5.480;2024-02-21T08:26:11;8.50;;;3.80;;
76636;SDS011;65532;52.124;5.480;2024-02-21T08:28:38;9.68;;;3.50;;
76636;SDS011;65532;52.124;5.480;2024-02-21T08:31:04;11.18;;;4.00;;
76636;SDS011;65532;52.124;5.480;2024-02-21T08:33:31;9.70;;;4.15;;
76636;SDS011;65532;52.124;5.480;2024-02-21T08:35:57;13.20;;;4.68;;
76636;SDS011;65532;52.124;5.480;2024-02-21T08:38:24;11.02;;;4.07;;
76636;SDS011;65532;52.124;5.480;2024-02-21T08:40:51;10.43;;;4.22;;
76636;SDS011;65532;52.124;5.480;2024-02-21T08:43:17;9.45;;;3.60;;
76636;SDS011;65532;52.124;5.480;2024-02-21T08:45:44;10.35;;;4.20;;
76636;SDS011;65532;52.124;5.480;2024-02-21T08:48:10;7.03;;;3.67;;
76636;SDS011;65532;52.124;5.480;2024-02-21T08:50:37;9.10;;;3.95;;
76636;SDS011;65532;52.124;5.480;2024-02-21T08:53:05;12.07;;;3.92;;
76636;SDS011;65532;52.124;5.480;2024-02-21T08:55:31;10.57;;;3.92;;
76636;SDS011;65532;52.124;5.480;2024-02-21T08:57:58;8.05;;;2.25;;
76636;SDS011;65532;52.124;5.480;2024-02-21T09:00:24;9.95;;;3.38;;
76636;SDS011;65532;52.124;5.480;2024-02-21T09:02:54;10.98;;;3.75;;
76636;SDS011;65532;52.124;5.480;2024-02-21T09:05:22;13.10;;;3.65;;
76636;SDS011;65532;52.124;5.480;2024-02-21T09:07:50;10.10;;;3.30;;
76636;SDS011;65532;52.124;5.480;2024-02-21T09:10:16;11.57;;;4.55;;
76636;SDS011;65532;52.124;5.480;2024-02-21T09:12:43;10.80;;;3.35;;
76636;SDS011;65532;52.124;5.480;2024-02-21T09:15:10;10.00;;;3.72;;
76636;SDS011;65532;52.124;5.480;2024-02-21T09:17:36;7.90;;;2.33;;
76636;SDS011;65532;52.124;5.480;2024-02-21T09:20:03;15.60;;;3.17;;
76636;SDS011;65532;52.124;5.480;2024-02-21T09:22:30;9.27;;;3.33;;
76636;SDS011;65532;52.124;5.480;2024-02-21T09:25:00;9.10;;;2.97;;
76636;SDS011;65532;52.124;5.480;2024-02-21T09:27:27;7.35;;;2.42;;
76636;SDS011;65532;52.124;5.480;2024-02-21T09:29:53;10.23;;;3.55;;
76636;SDS011;65532;52.124;5.480;2024-02-21T09:32:20;11.90;;;3.15;;
76636;SDS011;65532;52.124;5.480;2024-02-21T09:34:47;9.52;;;3.03;;
76636;SDS011;65532;52.124;5.480;2024-02-21T09:37:14;7.55;;;3.05;;
76636;SDS011;65532;52.124;5.480;2024-02-21T09:39:41;12.15;;;3.30;;
76636;SDS011;65532;52.124;5.480;2024-02-21T09:42:07;7.28;;;3.60;;
76636;SDS011;65532;52.124;5.480;2024-02-21T09:44:37;7.85;;;2.70;;
76636;SDS011;65532;52.124;5.480;2024-02-21T09:47:12;7.13;;;2.88;;
76636;SDS011;65532;52.124;5.480;2024-02-21T09:49:50;6.70;;;3.00;;
76636;SDS011;65532;52.124;5.480;2024-02-21T09:52:18;8.93;;;3.10;;
76636;SDS011;65532;52.124;5.480;2024-02-21T09:54:46;9.98;;;3.75;;
76636;SDS011;65532;52.124;5.480;2024-02-21T09:57:15;6.47;;;2.50;;
76636;SDS011;65532;52.124;5.480;2024-02-21T09:59:42;7.82;;;2.22;;
76636;SDS011;65532;52.124;5.480;2024-02-21T10:02:09;6.72;;;2.63;;
76636;SDS011;65532;52.124;5.480;2024-02-21T10:04:39;9.45;;;3.45;;
76636;SDS011;65532;52.124;5.480;2024-02-21T10:07:07;6.22;;;2.95;;
76636;SDS011;65532;52.124;5.480;2024-02-21T10:09:34;7.15;;;4.50;;
76636;SDS011;65532;52.124;5.480;2024-02-21T10:12:10;8.23;;;3.05;;
76636;SDS011;65532;52.124;5.480;2024-02-21T10:14:39;6.32;;;3.13;;
76636;SDS011;65532;52.124;5.480;2024-02-21T10:17:05;6.78;;;2.53;;
76636;SDS011;65532;52.124;5.480;2024-02-21T10:19:37;6.85;;;2.40;;
76636;SDS011;65532;52.124;5.480;2024-02-21T10:22:05;5.97;;;3.60;;
76636;SDS011;65532;52.124;5.480;2024-02-21T10:24:35;5.60;;;2.85;;
76636;SDS011;65532;52.124;5.480;2024-02-21T10:27:08;7.45;;;2.50;;
76636;SDS011;65532;52.124;5.480;2024-02-21T10:29:38;4.68;;;1.83;;
76636;SDS011;65532;52.124;5.480;2024-02-21T10:32:11;6.18;;;2.45;;
76636;SDS011;65532;52.124;5.480;2024-02-21T10:34:40;7.25;;;2.50;;
76636;SDS011;65532;52.124;5.480;2024-02-21T10:37:08;6.38;;;2.22;;
76636;SDS011;65532;52.124;5.480;2024-02-21T10:39:39;6.32;;;2.25;;
76636;SDS011;65532;52.124;5.480;2024-02-21T10:42:08;6.07;;;1.50;;
76636;SDS011;65532;52.124;5.480;2024-02-21T10:44:37;7.18;;;2.47;;
76636;SDS011;65532;52.124;5.480;2024-02-21T10:47:09;5.97;;;2.15;;
76636;SDS011;65532;52.124;5.480;2024-02-21T10:49:38;5.13;;;1.83;;
76636;SDS011;65532;52.124;5.480;2024-02-21T10:52:12;5.82;;;1.58;;
76636;SDS011;65532;52.124;5.480;2024-02-21T10:54:49;5.32;;;1.55;;
76636;SDS011;65532;52.124;5.480;2024-02-21T10:57:23;6.38;;;2.15;;
76636;SDS011;65532;52.124;5.480;2024-02-21T10:59:51;4.90;;;1.77;;
76636;SDS011;65532;52.124;5.480;2024-02-21T11:02:20;3.55;;;1.20;;
76636;SDS011;65532;52.124;5.480;2024-02-21T11:04:47;3.80;;;1.48;;
76636;SDS011;65532;52.124;5.480;2024-02-21T11:07:16;4.35;;;1.88;;
76636;SDS011;65532;52.124;5.480;2024-02-21T11:09:50;3.08;;;1.05;;
76636;SDS011;65532;52.124;5.480;2024-02-21T11:12:21;4.15;;;1.83;;
76636;SDS011;65532;52.124;5.480;2024-02-21T11:14:49;7.35;;;2.10;;
76636;SDS011;65532;52.124;5.480;2024-02-21T11:17:16;5.75;;;1.60;;
76636;SDS011;65532;52.124;5.480;2024-02-21T11:19:44;5.75;;;2.20;;
76636;SDS011;65532;52.124;5.480;2024-02-21T11:22:18;5.03;;;2.20;;
76636;SDS011;65532;52.124;5.480;2024-02-21T11:24:46;7.75;;;3.30;;
76636;SDS011;65532;52.124;5.480;2024-02-21T11:29:55;9.82;;;2.92;;
76636;SDS011;65532;52.124;5.480;2024-02-21T11:32:23;6.97;;;2.35;;
76636;SDS011;65532;52.124;5.480;2024-02-21T11:34:55;6.10;;;2.30;;
76636;SDS011;65532;52.124;5.480;2024-02-21T11:37:31;9.00;;;2.28;;
76636;SDS011;65532;52.124;5.480;2024-02-21T11:40:00;7.20;;;2.22;;
76636;SDS011;65532;52.124;5.480;2024-02-21T11:42:27;7.35;;;3.42;;
76636;SDS011;65532;52.124;5.480;2024-02-21T11:44:59;5.13;;;2.33;;
76636;SDS011;65532;52.124;5.480;2024-02-21T11:47:28;7.70;;;2.88;;
76636;SDS011;65532;52.124;5.480;2024-02-21T11:49:55;6.25;;;2.65;;
76636;SDS011;65532;52.124;5.480;2024-02-21T11:52:22;5.90;;;2.08;;
76636;SDS011;65532;52.124;5.480;2024-02-21T11:54:51;4.78;;;2.13;;
76636;SDS011;65532;52.124;5.480;2024-02-21T11:57:18;7.30;;;2.25;;
76636;SDS011;65532;52.124;5.480;2024-02-21T11:59:45;7.20;;;3.38;;
76636;SDS011;65532;52.124;5.480;2024-02-21T12:02:12;7.55;;;2.65;;
76636;SDS011;65532;52.124;5.480;2024-02-21T12:04:41;5.93;;;2.33;;
76636;SDS011;65532;52.124;5.480;2024-02-21T12:07:09;8.30;;;2.38;;
76636;SDS011;65532;52.124;5.480;2024-02-21T12:09:36;5.50;;;2.00;;
76636;SDS011;65532;52.124;5.480;2024-02-21T12:12:06;5.28;;;2.50;;
76636;SDS011;65532;52.124;5.480;2024-02-21T12:14:33;6.43;;;2.80;;
76636;SDS011;65532;52.124;5.480;2024-02-21T12:17:01;7.97;;;2.47;;
76636;SDS011;65532;52.124;5.480;2024-02-21T12:19:32;5.03;;;2.03;;
76636;SDS011;65532;52.124;5.480;2024-02-21T12:21:59;5.10;;;2.22;;
76636;SDS011;65532;52.124;5.480;2024-02-21T12:24:27;7.20;;;2.55;;
76636;SDS011;65532;52.124;5.480;2024-02-21T12:26:55;11.18;;;2.33;;
76636;SDS011;65532;52.124;5.480;2024-02-21T12:29:25;5.38;;;2.15;;
76636;SDS011;65532;52.124;5.480;2024-02-21T12:31:52;9.02;;;2.78;;
76636;SDS011;65532;52.124;5.480;2024-02-21T12:34:20;4.55;;;1.85;;
76636;SDS011;65532;52.124;5.480;2024-02-21T12:37:03;6.10;;;2.10;;
76636;SDS011;65532;52.124;5.480;2024-02-21T12:39:30;6.68;;;2.00;;
76636;SDS011;65532;52.124;5.480;2024-02-21T12:41:57;5.75;;;2.45;;
76636;SDS011;65532;52.124;5.480;2024-02-21T12:44:24;5.95;;;2.78;;
76636;SDS011;65532;52.124;5.480;2024-02-21T12:46:51;6.65;;;2.90;;
76636;SDS011;65532;52.124;5.480;2024-02-21T12:49:20;6.78;;;2.50;;
76636;SDS011;65532;52.124;5.480;2024-02-21T12:51:47;6.25;;;2.03;;
76636;SDS011;65532;52.124;5.480;2024-02-21T12:54:13;5.55;;;2.13;;
76636;SDS011;65532;52.124;5.480;2024-02-21T12:56:40;3.35;;;1.60;;
76636;SDS011;65532;52.124;5.480;2024-02-21T12:59:07;6.50;;;1.77;;
76636;SDS011;65532;52.124;5.480;2024-02-21T13:01:36;7.75;;;2.15;;
76636;SDS011;65532;52.124;5.480;2024-02-21T13:04:04;8.02;;;2.65;;
76636;SDS011;65532;52.124;5.480;2024-02-21T13:06:30;4.57;;;1.85;;
76636;SDS011;65532;52.124;5.480;2024-02-21T13:08:57;6.35;;;1.73;;
76636;SDS011;65532;52.124;5.480;2024-02-21T13:11:23;5.10;;;1.48;;
76636;SDS011;65532;52.124;5.480;2024-02-21T13:13:53;5.38;;;1.20;;
76636;SDS011;65532;52.124;5.480;2024-02-21T13:16:19;7.13;;;2.13;;
76636;SDS011;65532;52.124;5.480;2024-02-21T13:18:46;4.43;;;1.88;;
76636;SDS011;65532;52.124;5.480;2024-02-21T13:21:13;5.05;;;1.63;;
76636;SDS011;65532;52.124;5.480;2024-02-21T13:23:40;5.43;;;2.08;;
76636;SDS011;65532;52.124;5.480;2024-02-21T13:26:06;6.78;;;1.67;;
76636;SDS011;65532;52.124;5.480;2024-02-21T13:28:33;3.92;;;1.40;;
76636;SDS011;65532;52.124;5.480;2024-02-21T13:31:00;5.45;;;1.67;;
76636;SDS011;65532;52.124;5.480;2024-02-21T13:33:26;5.50;;;1.52;;
76636;SDS011;65532;52.124;5.480;2024-02-21T13:35:55;6.10;;;1.33;;
76636;SDS011;65532;52.124;5.480;2024-02-21T13:38:21;5.18;;;1.70;;
76636;SDS011;65532;52.124;5.480;2024-02-21T13:40:50;4.25;;;1.73;;
76636;SDS011;65532;52.124;5.480;2024-02-21T13:43:17;6.57;;;1.63;;
76636;SDS011;65532;52.124;5.480;2024-02-21T13:45:45;4.00;;;1.58;;
76636;SDS011;65532;52.124;5.480;2024-02-21T13:48:22;7.22;;;2.03;;
76636;SDS011;65532;52.124;5.480;2024-02-21T13:50:49;4.88;;;1.50;;
76636;SDS011;65532;52.124;5.480;2024-02-21T13:53:16;3.15;;;1.17;;
76636;SDS011;65532;52.124;5.480;2024-02-21T13:55:45;8.00;;;1.67;;
76636;SDS011;65532;52.124;5.480;2024-02-21T13:58:11;3.97;;;0.95;;
76636;SDS011;65532;52.124;5.480;2024-02-21T14:00:38;6.32;;;1.67;;
76636;SDS011;65532;52.124;5.480;2024-02-21T14:03:05;3.50;;;1.40;;
76636;SDS011;65532;52.124;5.480;2024-02-21T14:05:31;9.52;;;2.63;;
76636;SDS011;65532;52.124;5.480;2024-02-21T14:07:58;6.05;;;2.20;;
76636;SDS011;65532;52.124;5.480;2024-02-21T14:10:25;3.97;;;2.10;;
76636;SDS011;65532;52.124;5.480;2024-02-21T14:12:51;5.40;;;1.15;;
76636;SDS011;65532;52.124;5.480;2024-02-21T14:15:18;4.00;;;1.48;;
76636;SDS011;65532;52.124;5.480;2024-02-21T14:17:44;6.78;;;1.50;;
76636;SDS011;65532;52.124;5.480;2024-02-21T14:20:11;7.18;;;1.63;;
76636;SDS011;65532;52.124;5.480;2024-02-21T14:22:43;4.47;;;2.00;;
76636;SDS011;65532;52.124;5.480;2024-02-21T14:25:10;6.53;;;2.13;;
76636;SDS011;65532;52.124;5.480;2024-02-21T14:27:36;4.50;;;1.60;;
76636;SDS011;65532;52.124;5.480;2024-02-21T14:30:03;4.43;;;1.08;;
76636;SDS011;65532;52.124;5.480;2024-02-21T14:32:30;9.23;;;1.92;;
76636;SDS011;65532;52.124;5.480;2024-02-21T14:34:56;3.25;;;1.08;;
76636;SDS011;65532;52.124;5.480;2024-02-21T14:37:26;4.82;;;1.42;;
76636;SDS011;65532;52.124;5.480;2024-02-21T14:39:52;8.05;;;1.67;;
76636;SDS011;65532;52.124;5.480;2024-02-21T14:42:19;4.03;;;1.20;;
76636;SDS011;65532;52.124;5.480;2024-02-21T14:44:45;6.82;;;1.90;;
76636;SDS011;65532;52.124;5.480;2024-02-21T14:47:12;4.43;;;1.08;;
76636;SDS011;65532;52.124;5.480;2024-02-21T14:49:38;6.10;;;1.42;;